Patmos, Ohio
Current Conditions -  °F | °C
As of 5:51 AM on Saturday 20 Dec 2014 (Local Time) from KYNG Reporting Station
Overcast Overcast  
Wind Chill: 22°   Ceiling: 2200
Heat Index: 27°   Visibility: 10mi
Dew Point: 19°   Wind: 5mph
Humidity: 72%   Direction: 290°WNW
Pressure: 30.26"   Gusts: NA
Location:  40.9007°N, 80.8745°W
Report Text: KYNG 201051Z 29004KT 10SM OVC022 M03/M07 A3026 RMK AO2 SLP264 T10281072
Loading
Personal Weather Stations






























Interactive Weather Map New forecast layout! Learn more

10-Day Weather Forecast

Advertisements
Track Severe Weather on mobile